createdAt,value
2022-10-22T00:04:04.241Z,7
2022-10-22T00:09:04.418Z,9
2022-10-22T00:14:04.363Z,8
2022-10-22T00:19:14.624Z,6
2022-10-22T00:24:14.686Z,6
2022-10-22T00:29:14.821Z,7
2022-10-22T00:35:04.294Z,7
2022-10-22T00:40:04.391Z,6
2022-10-22T00:45:14.584Z,6
2022-10-22T00:50:14.620Z,5
2022-10-22T00:55:14.667Z,5
2022-10-22T01:00:14.842Z,5
2022-10-22T01:06:04.293Z,6
2022-10-22T01:11:04.310Z,8
2022-10-22T01:16:14.617Z,7
2022-10-22T01:21:14.830Z,9
2022-10-22T01:27:04.258Z,8
2022-10-22T01:32:04.276Z,5
2022-10-22T01:37:04.804Z,8
2022-10-22T01:42:14.868Z,8
2022-10-22T01:48:04.336Z,6
2022-10-22T01:53:14.878Z,17
2022-10-22T01:59:04.316Z,7
2022-10-22T02:04:04.381Z,7
2022-10-22T02:09:14.918Z,8
2022-10-22T02:15:04.314Z,9
2022-10-22T02:20:04.332Z,8
2022-10-22T02:25:04.615Z,6
2022-10-22T02:35:14.813Z,8
2022-10-22T02:41:04.359Z,7
2022-10-22T02:46:14.807Z,7
2022-10-22T02:52:04.351Z,6
2022-10-22T02:58:04.291Z,9
2022-10-22T03:03:04.362Z,9
2022-10-22T03:08:25.080Z,8
2022-10-22T03:14:04.354Z,8
2022-10-22T03:19:04.391Z,5
2022-10-22T03:24:14.825Z,7
2022-10-22T03:29:14.868Z,9
2022-10-22T03:34:14.838Z,6
2022-10-22T03:40:04.391Z,8
2022-10-22T03:45:04.559Z,8
2022-10-22T03:50:14.823Z,7
2022-10-22T03:55:14.881Z,9
2022-10-22T04:01:04.528Z,8
2022-10-22T04:06:14.808Z,10
2022-10-22T04:12:04.363Z,10
2022-10-22T04:17:14.885Z,8
2022-10-22T04:23:04.356Z,5
2022-10-22T04:28:04.457Z,8
2022-10-22T04:33:14.851Z,12
2022-10-22T04:39:04.295Z,5
2022-10-22T04:44:04.275Z,7
2022-10-22T04:49:14.833Z,5
2022-10-22T04:54:15.154Z,7
2022-10-22T04:59:14.842Z,13
2022-10-22T05:05:04.342Z,15
2022-10-22T05:10:14.779Z,7
2022-10-22T05:15:14.841Z,8
2022-10-22T05:21:04.421Z,12
2022-10-22T05:26:04.398Z,11
2022-10-22T05:31:14.661Z,9
2022-10-22T05:37:04.311Z,8
2022-10-22T05:42:04.305Z,5
2022-10-22T05:47:14.634Z,9
2022-10-22T05:53:04.337Z,10
2022-10-22T05:58:04.315Z,8
2022-10-22T06:03:04.338Z,12
2022-10-22T06:08:18.333Z,11
2022-10-22T06:14:04.393Z,11
2022-10-22T06:19:14.638Z,14
2022-10-22T06:25:04.403Z,13
2022-10-22T06:30:14.587Z,10
2022-10-22T06:35:14.599Z,13
2022-10-22T06:40:14.760Z,9
2022-10-22T06:45:14.779Z,9
2022-10-22T06:51:04.316Z,10
2022-10-22T06:56:04.342Z,9
2022-10-22T07:01:04.425Z,10
2022-10-22T07:06:04.626Z,10
2022-10-22T07:11:14.891Z,10
2022-10-22T07:17:04.565Z,10
2022-10-22T07:22:14.858Z,7
2022-10-22T07:27:14.974Z,9
2022-10-22T07:33:04.384Z,9
2022-10-22T07:38:04.558Z,12
2022-10-22T07:43:04.630Z,9
2022-10-22T07:48:14.788Z,7
2022-10-22T07:53:14.973Z,11
2022-10-22T07:58:14.847Z,10
2022-10-22T08:03:14.888Z,9
2022-10-22T08:09:04.812Z,9
2022-10-22T08:14:04.607Z,8
2022-10-22T08:19:14.857Z,10
2022-10-22T08:25:04.565Z,9
2022-10-22T08:30:14.656Z,13
2022-10-22T08:35:16.968Z,10
2022-10-22T08:41:04.663Z,10
2022-10-22T08:46:04.697Z,9
2022-10-22T08:51:05.909Z,11
2022-10-22T08:56:14.619Z,5
2022-10-22T09:01:14.884Z,9
2022-10-22T09:07:14.819Z,8
2022-10-22T09:13:05.075Z,8
2022-10-22T09:18:14.897Z,5
2022-10-22T09:24:04.355Z,8
2022-10-22T09:29:04.551Z,8
2022-10-22T09:34:04.593Z,6
2022-10-22T09:45:04.570Z,6
2022-10-22T09:50:14.804Z,4
2022-10-22T09:55:14.849Z,8
2022-10-22T10:00:14.844Z,4
2022-10-22T10:05:14.864Z,5
2022-10-22T10:11:04.596Z,5
2022-10-22T10:16:04.568Z,4
2022-10-22T10:27:04.340Z,4
2022-10-22T10:32:04.351Z,4
2022-10-22T10:37:04.360Z,7
2022-10-22T10:42:04.563Z,5
2022-10-22T10:47:05.245Z,4
2022-10-22T10:52:18.818Z,7
2022-10-22T10:58:04.599Z,6
2022-10-22T11:03:14.696Z,5
2022-10-22T11:08:14.870Z,7
2022-10-22T11:14:04.337Z,5
2022-10-22T11:19:04.370Z,4
2022-10-22T11:24:04.558Z,7
2022-10-22T11:29:14.899Z,6
2022-10-22T11:35:04.750Z,7
2022-10-22T11:40:14.915Z,5
2022-10-22T11:46:04.370Z,5
2022-10-22T11:51:14.710Z,6
2022-10-22T11:56:14.669Z,5
2022-10-22T12:01:14.673Z,5
2022-10-22T12:06:14.696Z,5
2022-10-22T12:12:04.495Z,7
2022-10-22T12:17:14.670Z,4
2022-10-22T12:22:14.719Z,7
2022-10-22T12:28:04.602Z,4
2022-10-22T12:33:14.668Z,3
2022-10-22T12:38:14.706Z,6
2022-10-22T12:43:14.766Z,6
2022-10-22T12:48:14.769Z,6
2022-10-22T12:54:04.593Z,4
2022-10-22T12:59:04.642Z,4
2022-10-22T13:04:14.891Z,5
2022-10-22T13:09:15.058Z,7
2022-10-22T13:15:04.662Z,6
2022-10-22T13:20:14.905Z,6
2022-10-22T13:26:04.608Z,7
2022-10-22T13:31:04.633Z,6
2022-10-22T13:36:04.631Z,6
2022-10-22T13:41:04.611Z,5
2022-10-22T13:46:14.802Z,5
2022-10-22T13:51:14.913Z,5
2022-10-22T13:57:04.632Z,4
2022-10-22T14:02:14.936Z,3
2022-10-22T14:07:14.954Z,4
2022-10-22T14:13:04.467Z,4
2022-10-22T14:18:04.652Z,3
2022-10-22T14:23:04.677Z,3
2022-10-22T14:28:14.915Z,6
2022-10-22T14:34:04.427Z,4
2022-10-22T14:39:04.700Z,4
2022-10-22T14:44:14.951Z,4
2022-10-22T14:50:04.410Z,4
2022-10-22T14:55:04.467Z,3
2022-10-22T15:00:14.716Z,4
2022-10-22T15:05:14.927Z,4
2022-10-22T15:10:14.917Z,4
2022-10-22T15:15:16.499Z,3
2022-10-22T15:21:04.664Z,4
2022-10-22T15:26:14.915Z,3
2022-10-22T15:31:14.956Z,4
2022-10-22T15:37:04.632Z,5
2022-10-22T15:42:14.948Z,4
2022-10-22T15:47:14.947Z,3
2022-10-22T15:53:04.662Z,6
2022-10-22T15:58:04.704Z,5
2022-10-22T16:03:14.925Z,5
2022-10-22T16:08:14.977Z,3
2022-10-22T16:13:14.964Z,3
2022-10-22T16:19:04.645Z,3
2022-10-22T16:24:06.352Z,4
2022-10-22T16:29:04.653Z,3
2022-10-22T16:34:14.699Z,5
2022-10-22T16:39:14.782Z,5
2022-10-22T16:44:14.885Z,5
2022-10-22T16:49:14.951Z,5
2022-10-22T16:54:14.997Z,7
2022-10-22T17:00:04.660Z,14
2022-10-22T17:05:04.702Z,12
2022-10-22T17:10:15.010Z,7
2022-10-22T17:15:14.990Z,7
2022-10-22T17:21:04.664Z,6
2022-10-22T17:26:14.938Z,9
2022-10-22T17:31:14.940Z,14
2022-10-22T17:36:14.977Z,20
2022-10-22T17:42:04.833Z,27
2022-10-22T17:47:14.982Z,19
2022-10-22T17:52:14.982Z,17
2022-10-22T17:58:04.489Z,13
2022-10-22T18:03:14.841Z,13
2022-10-22T18:09:04.532Z,8
2022-10-22T18:14:14.744Z,11
2022-10-22T18:19:14.860Z,19
2022-10-22T18:25:04.484Z,16
2022-10-22T18:30:04.526Z,14
2022-10-22T18:35:14.844Z,19
2022-10-22T18:41:04.475Z,14
2022-10-22T18:46:04.502Z,12
2022-10-22T18:51:04.632Z,12
2022-10-22T18:56:14.758Z,11
2022-10-22T19:01:14.809Z,11
2022-10-22T19:06:14.831Z,11
2022-10-22T19:12:04.684Z,8
2022-10-22T19:17:14.775Z,13
2022-10-22T19:22:15.004Z,13
2022-10-22T19:28:04.470Z,12
2022-10-22T19:33:04.469Z,16
2022-10-22T19:38:04.548Z,22
2022-10-22T19:43:04.664Z,19
2022-10-22T19:48:04.665Z,14
2022-10-22T19:53:14.834Z,22
2022-10-22T19:58:16.115Z,16
2022-10-22T20:04:04.659Z,16
2022-10-22T20:09:14.861Z,14
2022-10-22T20:14:14.975Z,16
2022-10-22T20:19:14.971Z,18
2022-10-22T20:25:04.728Z,19
2022-10-22T20:36:04.649Z,18
2022-10-22T20:41:15.025Z,15
2022-10-22T20:47:05.069Z,13
2022-10-22T20:52:15.028Z,16
2022-10-22T20:58:04.707Z,18
2022-10-22T21:03:14.800Z,14
2022-10-22T21:08:14.881Z,16
2022-10-22T21:13:15.080Z,24
2022-10-22T21:19:04.505Z,18
2022-10-22T21:24:04.499Z,25
2022-10-22T21:29:04.706Z,53
2022-10-22T21:34:14.984Z,39
2022-10-22T21:39:14.986Z,43
2022-10-22T21:45:08.017Z,34
2022-10-22T21:50:04.701Z,30
2022-10-22T21:55:14.981Z,25
2022-10-22T22:00:15.025Z,19
2022-10-22T22:06:04.696Z,15
2022-10-22T22:11:04.690Z,13
2022-10-22T22:16:14.814Z,16
2022-10-22T22:21:14.976Z,16
2022-10-22T22:27:04.464Z,17
2022-10-22T22:32:04.545Z,17
2022-10-22T22:37:04.694Z,11
2022-10-22T22:42:14.974Z,10
2022-10-22T22:47:15.007Z,9
2022-10-22T22:52:15.039Z,8
2022-10-22T22:57:15.023Z,7
2022-10-22T23:03:04.714Z,13
2022-10-22T23:08:14.989Z,9
2022-10-22T23:13:14.995Z,7
2022-10-22T23:19:04.653Z,9
2022-10-22T23:24:04.480Z,6
2022-10-22T23:29:04.680Z,7
2022-10-22T23:34:04.787Z,7
2022-10-22T23:39:15.010Z,8
2022-10-22T23:45:04.712Z,7
2022-10-22T23:50:14.949Z,6
2022-10-22T23:56:04.568Z,7
